sensor_id;sensor_type;location;lat;lon;timestamp;P1;durP1;ratioP1;P2;durP2;ratioP2
63110;SDS011;49201;53.426;10.300;2023-03-07T00:02:07;29.10;;;18.07;;
63110;SDS011;49201;53.426;10.300;2023-03-07T00:04:32;31.53;;;18.23;;
63110;SDS011;49201;53.426;10.300;2023-03-07T00:06:58;30.50;;;18.67;;
63110;SDS011;49201;53.426;10.300;2023-03-07T00:09:23;36.53;;;20.40;;
63110;SDS011;49201;53.426;10.300;2023-03-07T00:11:49;35.77;;;20.77;;
63110;SDS011;49201;53.426;10.300;2023-03-07T00:14:14;37.90;;;20.80;;
63110;SDS011;49201;53.426;10.300;2023-03-07T00:16:40;38.80;;;22.17;;
63110;SDS011;49201;53.426;10.300;2023-03-07T00:19:05;38.33;;;21.40;;
63110;SDS011;49201;53.426;10.300;2023-03-07T00:21:32;42.37;;;23.20;;
63110;SDS011;49201;53.426;10.300;2023-03-07T00:23:57;42.70;;;24.10;;
63110;SDS011;49201;53.426;10.300;2023-03-07T00:26:23;45.27;;;24.97;;
63110;SDS011;49201;53.426;10.300;2023-03-07T00:28:51;47.63;;;24.07;;
63110;SDS011;49201;53.426;10.300;2023-03-07T00:31:18;46.43;;;24.57;;
63110;SDS011;49201;53.426;10.300;2023-03-07T00:33:44;45.03;;;25.23;;
63110;SDS011;49201;53.426;10.300;2023-03-07T00:36:11;47.37;;;26.33;;
63110;SDS011;49201;53.426;10.300;2023-03-07T00:38:37;46.77;;;25.13;;
63110;SDS011;49201;53.426;10.300;2023-03-07T00:41:03;48.03;;;26.10;;
63110;SDS011;49201;53.426;10.300;2023-03-07T00:43:34;49.97;;;25.03;;
63110;SDS011;49201;53.426;10.300;2023-03-07T00:46:00;47.87;;;27.67;;
63110;SDS011;49201;53.426;10.300;2023-03-07T00:48:26;52.13;;;27.80;;
63110;SDS011;49201;53.426;10.300;2023-03-07T00:50:53;50.33;;;26.80;;
63110;SDS011;49201;53.426;10.300;2023-03-07T00:53:19;46.80;;;26.60;;
63110;SDS011;49201;53.426;10.300;2023-03-07T00:55:52;50.47;;;27.43;;
63110;SDS011;49201;53.426;10.300;2023-03-07T00:58:21;47.97;;;26.97;;
63110;SDS011;49201;53.426;10.300;2023-03-07T01:00:48;49.00;;;26.47;;
63110;SDS011;49201;53.426;10.300;2023-03-07T01:03:14;47.13;;;27.00;;
63110;SDS011;49201;53.426;10.300;2023-03-07T01:05:40;47.10;;;26.37;;
63110;SDS011;49201;53.426;10.300;2023-03-07T01:08:05;47.90;;;28.13;;
63110;SDS011;49201;53.426;10.300;2023-03-07T01:10:31;48.60;;;28.17;;
63110;SDS011;49201;53.426;10.300;2023-03-07T01:12:58;48.63;;;27.83;;
63110;SDS011;49201;53.426;10.300;2023-03-07T01:15:24;51.73;;;28.77;;
63110;SDS011;49201;53.426;10.300;2023-03-07T01:17:50;50.97;;;27.97;;
63110;SDS011;49201;53.426;10.300;2023-03-07T01:20:15;54.13;;;28.93;;
63110;SDS011;49201;53.426;10.300;2023-03-07T01:22:41;51.67;;;28.77;;
63110;SDS011;49201;53.426;10.300;2023-03-07T01:25:06;54.30;;;29.73;;
63110;SDS011;49201;53.426;10.300;2023-03-07T01:27:32;56.97;;;31.47;;
63110;SDS011;49201;53.426;10.300;2023-03-07T01:29:58;55.37;;;29.83;;
63110;SDS011;49201;53.426;10.300;2023-03-07T01:32:23;54.23;;;29.90;;
63110;SDS011;49201;53.426;10.300;2023-03-07T01:34:49;55.83;;;31.30;;
63110;SDS011;49201;53.426;10.300;2023-03-07T01:37:14;54.30;;;30.63;;
63110;SDS011;49201;53.426;10.300;2023-03-07T01:39:40;53.73;;;30.63;;
63110;SDS011;49201;53.426;10.300;2023-03-07T01:42:09;59.73;;;30.73;;
63110;SDS011;49201;53.426;10.300;2023-03-07T01:44:56;65.50;;;33.00;;
63110;SDS011;49201;53.426;10.300;2023-03-07T01:47:22;59.00;;;32.27;;
63110;SDS011;49201;53.426;10.300;2023-03-07T01:49:50;59.43;;;31.23;;
63110;SDS011;49201;53.426;10.300;2023-03-07T01:52:17;59.80;;;32.43;;
63110;SDS011;49201;53.426;10.300;2023-03-07T01:54:51;57.53;;;30.67;;
63110;SDS011;49201;53.426;10.300;2023-03-07T01:57:28;60.87;;;32.50;;
63110;SDS011;49201;53.426;10.300;2023-03-07T01:59:58;57.60;;;31.07;;
63110;SDS011;49201;53.426;10.300;2023-03-07T02:02:38;56.30;;;30.77;;
63110;SDS011;49201;53.426;10.300;2023-03-07T02:05:21;59.30;;;32.67;;
63110;SDS011;49201;53.426;10.300;2023-03-07T02:07:52;61.27;;;32.10;;
63110;SDS011;49201;53.426;10.300;2023-03-07T02:10:23;62.20;;;31.77;;
63110;SDS011;49201;53.426;10.300;2023-03-07T02:12:50;58.93;;;30.50;;
63110;SDS011;49201;53.426;10.300;2023-03-07T02:15:17;59.57;;;31.77;;
63110;SDS011;49201;53.426;10.300;2023-03-07T02:17:43;66.73;;;33.33;;
63110;SDS011;49201;53.426;10.300;2023-03-07T02:22:39;62.60;;;31.37;;
63110;SDS011;49201;53.426;10.300;2023-03-07T02:27:37;55.33;;;30.97;;
63110;SDS011;49201;53.426;10.300;2023-03-07T02:30:04;59.63;;;31.17;;
63110;SDS011;49201;53.426;10.300;2023-03-07T02:32:32;58.97;;;30.53;;
63110;SDS011;49201;53.426;10.300;2023-03-07T02:34:57;60.03;;;31.50;;
63110;SDS011;49201;53.426;10.300;2023-03-07T02:37:27;57.03;;;30.03;;
63110;SDS011;49201;53.426;10.300;2023-03-07T02:40:00;57.10;;;30.00;;
63110;SDS011;49201;53.426;10.300;2023-03-07T02:42:32;55.57;;;29.77;;
63110;SDS011;49201;53.426;10.300;2023-03-07T02:45:10;58.07;;;29.90;;
63110;SDS011;49201;53.426;10.300;2023-03-07T02:47:40;54.90;;;28.57;;
63110;SDS011;49201;53.426;10.300;2023-03-07T02:50:07;52.97;;;27.43;;
63110;SDS011;49201;53.426;10.300;2023-03-07T02:52:36;53.80;;;28.03;;
63110;SDS011;49201;53.426;10.300;2023-03-07T02:55:02;56.57;;;29.53;;
63110;SDS011;49201;53.426;10.300;2023-03-07T02:57:32;55.17;;;27.70;;
63110;SDS011;49201;53.426;10.300;2023-03-07T02:59:59;56.83;;;28.77;;
63110;SDS011;49201;53.426;10.300;2023-03-07T03:02:24;57.13;;;29.47;;
63110;SDS011;49201;53.426;10.300;2023-03-07T03:04:50;52.23;;;28.33;;
63110;SDS011;49201;53.426;10.300;2023-03-07T03:07:16;51.80;;;28.00;;
63110;SDS011;49201;53.426;10.300;2023-03-07T03:09:42;52.93;;;27.40;;
63110;SDS011;49201;53.426;10.300;2023-03-07T03:12:07;54.63;;;29.37;;
63110;SDS011;49201;53.426;10.300;2023-03-07T03:14:34;57.87;;;27.87;;
63110;SDS011;49201;53.426;10.300;2023-03-07T03:16:59;51.20;;;27.13;;
63110;SDS011;49201;53.426;10.300;2023-03-07T03:19:25;49.97;;;26.37;;
63110;SDS011;49201;53.426;10.300;2023-03-07T03:21:52;53.03;;;27.27;;
63110;SDS011;49201;53.426;10.300;2023-03-07T03:24:18;54.10;;;27.30;;
63110;SDS011;49201;53.426;10.300;2023-03-07T03:26:46;53.30;;;27.40;;
63110;SDS011;49201;53.426;10.300;2023-03-07T03:29:12;51.97;;;26.53;;
63110;SDS011;49201;53.426;10.300;2023-03-07T03:31:38;52.90;;;27.73;;
63110;SDS011;49201;53.426;10.300;2023-03-07T03:34:04;46.17;;;25.57;;
63110;SDS011;49201;53.426;10.300;2023-03-07T03:36:30;52.17;;;26.77;;
63110;SDS011;49201;53.426;10.300;2023-03-07T03:39:00;51.33;;;26.17;;
63110;SDS011;49201;53.426;10.300;2023-03-07T03:41:27;46.27;;;25.27;;
63110;SDS011;49201;53.426;10.300;2023-03-07T03:43:52;46.73;;;25.67;;
63110;SDS011;49201;53.426;10.300;2023-03-07T03:46:18;49.77;;;26.27;;
63110;SDS011;49201;53.426;10.300;2023-03-07T03:48:54;47.90;;;25.37;;
63110;SDS011;49201;53.426;10.300;2023-03-07T03:51:22;42.37;;;23.97;;
63110;SDS011;49201;53.426;10.300;2023-03-07T03:53:48;40.83;;;23.67;;
63110;SDS011;49201;53.426;10.300;2023-03-07T03:56:15;44.23;;;24.07;;
63110;SDS011;49201;53.426;10.300;2023-03-07T03:58:42;43.37;;;24.37;;
63110;SDS011;49201;53.426;10.300;2023-03-07T04:01:11;40.73;;;23.03;;
63110;SDS011;49201;53.426;10.300;2023-03-07T04:03:41;43.87;;;22.97;;
63110;SDS011;49201;53.426;10.300;2023-03-07T04:06:12;42.00;;;23.27;;
63110;SDS011;49201;53.426;10.300;2023-03-07T04:08:43;42.60;;;24.30;;
63110;SDS011;49201;53.426;10.300;2023-03-07T04:11:10;41.67;;;22.50;;
63110;SDS011;49201;53.426;10.300;2023-03-07T04:13:36;37.43;;;21.27;;
63110;SDS011;49201;53.426;10.300;2023-03-07T04:16:02;42.13;;;21.97;;
63110;SDS011;49201;53.426;10.300;2023-03-07T04:18:28;33.47;;;20.57;;
63110;SDS011;49201;53.426;10.300;2023-03-07T04:20:53;39.40;;;21.13;;
63110;SDS011;49201;53.426;10.300;2023-03-07T04:23:20;38.17;;;21.23;;
63110;SDS011;49201;53.426;10.300;2023-03-07T04:25:47;35.60;;;21.10;;
63110;SDS011;49201;53.426;10.300;2023-03-07T04:28:14;33.27;;;19.17;;
63110;SDS011;49201;53.426;10.300;2023-03-07T04:30:43;36.03;;;18.93;;
63110;SDS011;49201;53.426;10.300;2023-03-07T04:33:09;34.27;;;18.80;;
63110;SDS011;49201;53.426;10.300;2023-03-07T04:35:35;31.23;;;18.67;;
63110;SDS011;49201;53.426;10.300;2023-03-07T04:38:00;29.43;;;16.83;;
63110;SDS011;49201;53.426;10.300;2023-03-07T04:40:26;29.00;;;16.63;;
63110;SDS011;49201;53.426;10.300;2023-03-07T04:42:52;29.53;;;16.50;;
63110;SDS011;49201;53.426;10.300;2023-03-07T04:45:18;27.57;;;15.77;;
63110;SDS011;49201;53.426;10.300;2023-03-07T04:47:43;27.67;;;15.80;;
63110;SDS011;49201;53.426;10.300;2023-03-07T04:50:09;27.80;;;15.60;;
63110;SDS011;49201;53.426;10.300;2023-03-07T04:52:35;29.53;;;16.37;;
63110;SDS011;49201;53.426;10.300;2023-03-07T04:55:00;29.03;;;15.33;;
63110;SDS011;49201;53.426;10.300;2023-03-07T04:57:26;24.33;;;14.03;;
63110;SDS011;49201;53.426;10.300;2023-03-07T04:59:52;28.03;;;13.80;;
63110;SDS011;49201;53.426;10.300;2023-03-07T05:02:19;24.53;;;13.37;;
63110;SDS011;49201;53.426;10.300;2023-03-07T05:04:45;22.57;;;13.10;;
63110;SDS011;49201;53.426;10.300;2023-03-07T05:07:11;20.87;;;12.90;;
63110;SDS011;49201;53.426;10.300;2023-03-07T05:09:36;21.43;;;11.70;;
63110;SDS011;49201;53.426;10.300;2023-03-07T05:12:02;22.67;;;12.10;;
63110;SDS011;49201;53.426;10.300;2023-03-07T05:14:28;20.73;;;11.37;;
63110;SDS011;49201;53.426;10.300;2023-03-07T05:16:53;15.87;;;9.70;;
63110;SDS011;49201;53.426;10.300;2023-03-07T05:19:19;20.60;;;10.63;;
63110;SDS011;49201;53.426;10.300;2023-03-07T05:21:44;17.87;;;10.00;;
63110;SDS011;49201;53.426;10.300;2023-03-07T05:24:11;16.67;;;8.33;;
63110;SDS011;49201;53.426;10.300;2023-03-07T05:26:37;17.60;;;8.37;;
63110;SDS011;49201;53.426;10.300;2023-03-07T05:29:02;16.07;;;8.20;;
63110;SDS011;49201;53.426;10.300;2023-03-07T05:31:29;16.80;;;7.07;;
63110;SDS011;49201;53.426;10.300;2023-03-07T05:33:54;13.87;;;7.00;;
63110;SDS011;49201;53.426;10.300;2023-03-07T05:36:20;11.27;;;6.07;;
63110;SDS011;49201;53.426;10.300;2023-03-07T05:38:45;10.60;;;6.07;;
63110;SDS011;49201;53.426;10.300;2023-03-07T05:41:11;11.80;;;6.53;;
63110;SDS011;49201;53.426;10.300;2023-03-07T05:43:37;15.60;;;6.30;;
63110;SDS011;49201;53.426;10.300;2023-03-07T05:46:02;10.80;;;5.80;;
63110;SDS011;49201;53.426;10.300;2023-03-07T05:48:28;10.57;;;5.70;;
63110;SDS011;49201;53.426;10.300;2023-03-07T05:50:53;12.97;;;5.53;;
63110;SDS011;49201;53.426;10.300;2023-03-07T05:53:18;8.13;;;4.97;;
63110;SDS011;49201;53.426;10.300;2023-03-07T05:55:44;12.33;;;4.70;;
63110;SDS011;49201;53.426;10.300;2023-03-07T05:58:10;10.43;;;4.60;;
63110;SDS011;49201;53.426;10.300;2023-03-07T06:00:36;10.23;;;3.80;;
63110;SDS011;49201;53.426;10.300;2023-03-07T06:03:02;8.13;;;3.77;;
63110;SDS011;49201;53.426;10.300;2023-03-07T06:05:29;8.13;;;4.07;;
63110;SDS011;49201;53.426;10.300;2023-03-07T06:07:54;7.47;;;3.33;;
63110;SDS011;49201;53.426;10.300;2023-03-07T06:10:20;6.33;;;3.57;;
63110;SDS011;49201;53.426;10.300;2023-03-07T06:12:51;9.10;;;3.60;;
63110;SDS011;49201;53.426;10.300;2023-03-07T06:15:18;7.37;;;3.30;;
63110;SDS011;49201;53.426;10.300;2023-03-07T06:17:46;8.97;;;3.17;;
63110;SDS011;49201;53.426;10.300;2023-03-07T06:20:11;8.30;;;3.20;;
63110;SDS011;49201;53.426;10.300;2023-03-07T06:22:37;7.87;;;3.50;;
63110;SDS011;49201;53.426;10.300;2023-03-07T06:25:04;8.77;;;4.03;;
63110;SDS011;49201;53.426;10.300;2023-03-07T06:27:34;7.13;;;3.10;;
63110;SDS011;49201;53.426;10.300;2023-03-07T06:30:00;6.47;;;2.70;;
63110;SDS011;49201;53.426;10.300;2023-03-07T06:32:29;9.33;;;3.43;;
63110;SDS011;49201;53.426;10.300;2023-03-07T06:34:56;7.57;;;2.90;;
63110;SDS011;49201;53.426;10.300;2023-03-07T06:37:22;8.80;;;3.17;;
63110;SDS011;49201;53.426;10.300;2023-03-07T06:39:47;6.50;;;3.00;;
63110;SDS011;49201;53.426;10.300;2023-03-07T06:42:13;9.53;;;3.00;;
63110;SDS011;49201;53.426;10.300;2023-03-07T06:44:39;8.53;;;3.00;;
63110;SDS011;49201;53.426;10.300;2023-03-07T06:47:05;9.27;;;2.80;;
63110;SDS011;49201;53.426;10.300;2023-03-07T06:49:30;10.10;;;2.67;;
63110;SDS011;49201;53.426;10.300;2023-03-07T06:51:56;8.30;;;2.60;;
63110;SDS011;49201;53.426;10.300;2023-03-07T06:54:21;8.63;;;2.40;;
63110;SDS011;49201;53.426;10.300;2023-03-07T06:56:47;5.80;;;2.40;;
63110;SDS011;49201;53.426;10.300;2023-03-07T06:59:16;5.73;;;2.10;;
63110;SDS011;49201;53.426;10.300;2023-03-07T07:01:44;9.43;;;2.20;;
63110;SDS011;49201;53.426;10.300;2023-03-07T07:04:09;6.80;;;2.00;;
63110;SDS011;49201;53.426;10.300;2023-03-07T07:06:35;9.17;;;2.20;;
63110;SDS011;49201;53.426;10.300;2023-03-07T07:09:01;5.27;;;1.87;;
63110;SDS011;49201;53.426;10.300;2023-03-07T07:11:32;9.33;;;2.37;;
63110;SDS011;49201;53.426;10.300;2023-03-07T07:13:58;9.93;;;2.00;;
63110;SDS011;49201;53.426;10.300;2023-03-07T07:16:24;4.40;;;1.57;;
63110;SDS011;49201;53.426;10.300;2023-03-07T07:18:50;5.63;;;1.50;;
63110;SDS011;49201;53.426;10.300;2023-03-07T07:21:16;6.00;;;1.60;;
63110;SDS011;49201;53.426;10.300;2023-03-07T07:23:42;8.37;;;1.60;;
63110;SDS011;49201;53.426;10.300;2023-03-07T07:26:08;6.70;;;1.30;;
63110;SDS011;49201;53.426;10.300;2023-03-07T07:28:34;7.80;;;2.33;;
63110;SDS011;49201;53.426;10.300;2023-03-07T07:31:00;8.23;;;1.63;;
63110;SDS011;49201;53.426;10.300;2023-03-07T07:33:27;6.30;;;1.40;;
63110;SDS011;49201;53.426;10.300;2023-03-07T07:35:53;7.23;;;1.70;;
63110;SDS011;49201;53.426;10.300;2023-03-07T07:38:18;7.33;;;1.50;;
63110;SDS011;49201;53.426;10.300;2023-03-07T07:40:44;3.67;;;0.90;;
63110;SDS011;49201;53.426;10.300;2023-03-07T07:43:13;6.33;;;1.30;;
63110;SDS011;49201;53.426;10.300;2023-03-07T07:46:01;5.00;;;1.40;;
63110;SDS011;49201;53.426;10.300;2023-03-07T07:48:27;8.57;;;1.37;;
63110;SDS011;49201;53.426;10.300;2023-03-07T07:50:53;6.97;;;1.60;;
63110;SDS011;49201;53.426;10.300;2023-03-07T07:53:19;10.13;;;1.50;;
63110;SDS011;49201;53.426;10.300;2023-03-07T07:55:45;5.77;;;1.23;;
63110;SDS011;49201;53.426;10.300;2023-03-07T07:58:13;9.93;;;1.57;;
63110;SDS011;49201;53.426;10.300;2023-03-07T08:00:39;4.90;;;1.03;;
63110;SDS011;49201;53.426;10.300;2023-03-07T08:03:04;5.97;;;1.67;;
63110;SDS011;49201;53.426;10.300;2023-03-07T08:05:31;6.80;;;1.30;;
63110;SDS011;49201;53.426;10.300;2023-03-07T08:07:56;8.63;;;1.40;;
63110;SDS011;49201;53.426;10.300;2023-03-07T08:10:22;7.43;;;1.33;;
63110;SDS011;49201;53.426;10.300;2023-03-07T08:12:48;6.37;;;1.57;;
63110;SDS011;49201;53.426;10.300;2023-03-07T08:15:20;7.97;;;1.63;;
63110;SDS011;49201;53.426;10.300;2023-03-07T08:17:46;7.20;;;1.17;;
63110;SDS011;49201;53.426;10.300;2023-03-07T08:20:13;7.80;;;1.50;;
63110;SDS011;49201;53.426;10.300;2023-03-07T08:22:39;7.73;;;1.40;;
63110;SDS011;49201;53.426;10.300;2023-03-07T08:25:05;7.33;;;1.40;;
63110;SDS011;49201;53.426;10.300;2023-03-07T08:27:31;7.23;;;1.40;;
63110;SDS011;49201;53.426;10.300;2023-03-07T08:29:58;5.40;;;1.20;;
63110;SDS011;49201;53.426;10.300;2023-03-07T08:32:23;4.27;;;1.43;;
63110;SDS011;49201;53.426;10.300;2023-03-07T08:34:49;9.00;;;1.50;;
63110;SDS011;49201;53.426;10.300;2023-03-07T08:37:14;5.90;;;1.47;;
63110;SDS011;49201;53.426;10.300;2023-03-07T08:39:39;11.20;;;1.87;;
63110;SDS011;49201;53.426;10.300;2023-03-07T08:42:05;8.80;;;1.50;;
63110;SDS011;49201;53.426;10.300;2023-03-07T08:44:31;9.43;;;1.90;;
63110;SDS011;49201;53.426;10.300;2023-03-07T08:46:56;11.60;;;1.40;;
63110;SDS011;49201;53.426;10.300;2023-03-07T08:49:21;9.63;;;1.70;;
63110;SDS011;49201;53.426;10.300;2023-03-07T08:51:47;8.40;;;1.40;;
63110;SDS011;49201;53.426;10.300;2023-03-07T08:54:13;9.33;;;1.37;;
63110;SDS011;49201;53.426;10.300;2023-03-07T08:56:38;5.63;;;1.30;;
63110;SDS011;49201;53.426;10.300;2023-03-07T08:59:04;6.97;;;1.33;;
63110;SDS011;49201;53.426;10.300;2023-03-07T09:01:29;10.60;;;1.50;;
63110;SDS011;49201;53.426;10.300;2023-03-07T09:03:55;5.73;;;1.40;;
63110;SDS011;49201;53.426;10.300;2023-03-07T09:06:20;8.23;;;1.77;;
63110;SDS011;49201;53.426;10.300;2023-03-07T09:08:46;10.57;;;1.37;;
63110;SDS011;49201;53.426;10.300;2023-03-07T09:11:13;7.63;;;1.60;;
63110;SDS011;49201;53.426;10.300;2023-03-07T09:13:39;7.37;;;1.40;;
63110;SDS011;49201;53.426;10.300;2023-03-07T09:16:05;5.67;;;1.33;;
63110;SDS011;49201;53.426;10.300;2023-03-07T09:18:32;10.30;;;2.10;;
63110;SDS011;49201;53.426;10.300;2023-03-07T09:21:04;11.07;;;2.10;;
63110;SDS011;49201;53.426;10.300;2023-03-07T09:23:30;7.27;;;1.60;;
63110;SDS011;49201;53.426;10.300;2023-03-07T09:26:02;8.23;;;1.73;;
63110;SDS011;49201;53.426;10.300;2023-03-07T09:28:30;10.33;;;1.57;;
63110;SDS011;49201;53.426;10.300;2023-03-07T09:30:56;9.83;;;1.70;;
63110;SDS011;49201;53.426;10.300;2023-03-07T09:33:21;9.37;;;1.83;;
63110;SDS011;49201;53.426;10.300;2023-03-07T09:35:47;8.97;;;1.77;;
63110;SDS011;49201;53.426;10.300;2023-03-07T09:38:12;9.27;;;1.90;;
63110;SDS011;49201;53.426;10.300;2023-03-07T09:40:38;7.07;;;1.70;;
63110;SDS011;49201;53.426;10.300;2023-03-07T09:46:07;9.03;;;1.70;;
63110;SDS011;49201;53.426;10.300;2023-03-07T09:54:03;10.07;;;1.53;;
63110;SDS011;49201;53.426;10.300;2023-03-07T09:56:43;11.00;;;1.50;;
63110;SDS011;49201;53.426;10.300;2023-03-07T10:02:38;4.73;;;1.17;;
63110;SDS011;49201;53.426;10.300;2023-03-07T10:07:36;9.50;;;1.70;;
63110;SDS011;49201;53.426;10.300;2023-03-07T10:10:06;5.40;;;1.57;;
63110;SDS011;49201;53.426;10.300;2023-03-07T10:15:47;8.27;;;1.70;;
63110;SDS011;49201;53.426;10.300;2023-03-07T10:26:33;7.93;;;1.60;;
63110;SDS011;49201;53.426;10.300;2023-03-07T10:29:12;1.80;;;0.40;;
63110;SDS011;49201;53.426;10.300;2023-03-07T10:31:40;2.97;;;0.63;;
63110;SDS011;49201;53.426;10.300;2023-03-07T10:36:42;1.20;;;0.50;;
63110;SDS011;49201;53.426;10.300;2023-03-07T10:39:23;3.20;;;1.03;;
63110;SDS011;49201;53.426;10.300;2023-03-07T10:41:54;4.33;;;1.00;;
63110;SDS011;49201;53.426;10.300;2023-03-07T10:44:20;8.97;;;1.27;;
63110;SDS011;49201;53.426;10.300;2023-03-07T10:46:46;6.10;;;1.87;;
63110;SDS011;49201;53.426;10.300;2023-03-07T10:49:20;2.33;;;0.80;;
63110;SDS011;49201;53.426;10.300;2023-03-07T10:54:39;5.07;;;0.80;;
63110;SDS011;49201;53.426;10.300;2023-03-07T10:57:06;2.60;;;0.90;;
63110;SDS011;49201;53.426;10.300;2023-03-07T10:59:34;4.67;;;0.83;;
63110;SDS011;49201;53.426;10.300;2023-03-07T11:02:01;3.33;;;0.73;;
63110;SDS011;49201;53.426;10.300;2023-03-07T11:04:43;2.83;;;0.70;;
63110;SDS011;49201;53.426;10.300;2023-03-07T11:09:59;2.07;;;0.73;;
63110;SDS011;49201;53.426;10.300;2023-03-07T11:12:26;2.33;;;0.67;;
63110;SDS011;49201;53.426;10.300;2023-03-07T11:14:54;5.60;;;1.00;;
63110;SDS011;49201;53.426;10.300;2023-03-07T11:23:13;4.30;;;1.10;;
63110;SDS011;49201;53.426;10.300;2023-03-07T11:25:50;7.20;;;1.37;;
63110;SDS011;49201;53.426;10.300;2023-03-07T11:28:35;5.37;;;1.20;;
63110;SDS011;49201;53.426;10.300;2023-03-07T11:36:01;8.80;;;1.40;;
63110;SDS011;49201;53.426;10.300;2023-03-07T11:41:10;6.00;;;1.10;;
63110;SDS011;49201;53.426;10.300;2023-03-07T11:46:12;4.50;;;1.00;;
63110;SDS011;49201;53.426;10.300;2023-03-07T11:54:20;5.17;;;1.37;;
63110;SDS011;49201;53.426;10.300;2023-03-07T11:56:51;9.00;;;1.50;;
63110;SDS011;49201;53.426;10.300;2023-03-07T12:01:52;4.67;;;1.20;;
63110;SDS011;49201;53.426;10.300;2023-03-07T12:09:54;9.57;;;1.50;;
63110;SDS011;49201;53.426;10.300;2023-03-07T12:23:46;11.40;;;2.20;;
63110;SDS011;49201;53.426;10.300;2023-03-07T12:26:27;5.80;;;1.57;;
63110;SDS011;49201;53.426;10.300;2023-03-07T12:29:09;9.83;;;1.80;;
63110;SDS011;49201;53.426;10.300;2023-03-07T12:31:56;5.00;;;1.40;;
63110;SDS011;49201;53.426;10.300;2023-03-07T12:34:31;8.17;;;1.57;;
63110;SDS011;49201;53.426;10.300;2023-03-07T12:37:09;9.40;;;2.00;;
63110;SDS011;49201;53.426;10.300;2023-03-07T12:39:53;8.03;;;1.43;;
63110;SDS011;49201;53.426;10.300;2023-03-07T12:45:27;6.33;;;1.40;;
63110;SDS011;49201;53.426;10.300;2023-03-07T12:48:07;5.30;;;1.43;;
63110;SDS011;49201;53.426;10.300;2023-03-07T12:53:36;12.43;;;2.20;;
63110;SDS011;49201;53.426;10.300;2023-03-07T12:59:11;7.10;;;1.33;;
63110;SDS011;49201;53.426;10.300;2023-03-07T13:07:04;8.57;;;1.83;;
63110;SDS011;49201;53.426;10.300;2023-03-07T13:09:30;5.83;;;1.40;;
63110;SDS011;49201;53.426;10.300;2023-03-07T13:17:10;3.83;;;1.23;;
63110;SDS011;49201;53.426;10.300;2023-03-07T13:24:41;7.83;;;1.20;;
63110;SDS011;49201;53.426;10.300;2023-03-07T13:45:48;3.00;;;1.27;;
63110;SDS011;49201;53.426;10.300;2023-03-07T13:58:56;6.80;;;1.47;;
63110;SDS011;49201;53.426;10.300;2023-03-07T14:06:30;6.50;;;1.60;;
63110;SDS011;49201;53.426;10.300;2023-03-07T14:09:00;7.30;;;1.30;;
63110;SDS011;49201;53.426;10.300;2023-03-07T14:17:29;3.00;;;1.10;;
63110;SDS011;49201;53.426;10.300;2023-03-07T14:25:30;5.53;;;1.20;;
63110;SDS011;49201;53.426;10.300;2023-03-07T14:28:17;3.93;;;1.33;;
63110;SDS011;49201;53.426;10.300;2023-03-07T14:33:19;6.00;;;1.13;;
63110;SDS011;49201;53.426;10.300;2023-03-07T14:35:44;7.77;;;1.03;;
63110;SDS011;49201;53.426;10.300;2023-03-07T14:38:15;9.50;;;1.40;;
63110;SDS011;49201;53.426;10.300;2023-03-07T14:47:03;4.80;;;1.37;;
63110;SDS011;49201;53.426;10.300;2023-03-07T14:49:50;6.97;;;1.37;;
63110;SDS011;49201;53.426;10.300;2023-03-07T14:52:32;5.70;;;1.30;;
63110;SDS011;49201;53.426;10.300;2023-03-07T14:54:59;10.07;;;1.30;;
63110;SDS011;49201;53.426;10.300;2023-03-07T14:57:32;6.67;;;1.30;;
63110;SDS011;49201;53.426;10.300;2023-03-07T15:00:05;3.60;;;1.20;;
63110;SDS011;49201;53.426;10.300;2023-03-07T15:03:12;10.00;;;1.30;;
63110;SDS011;49201;53.426;10.300;2023-03-07T15:08:15;5.53;;;0.90;;
63110;SDS011;49201;53.426;10.300;2023-03-07T15:10:42;2.97;;;1.00;;
63110;SDS011;49201;53.426;10.300;2023-03-07T15:13:13;5.50;;;0.83;;
63110;SDS011;49201;53.426;10.300;2023-03-07T15:15:56;4.33;;;0.73;;
63110;SDS011;49201;53.426;10.300;2023-03-07T15:18:37;4.67;;;0.70;;
63110;SDS011;49201;53.426;10.300;2023-03-07T15:21:16;2.67;;;0.60;;
63110;SDS011;49201;53.426;10.300;2023-03-07T15:23:55;3.23;;;0.50;;
63110;SDS011;49201;53.426;10.300;2023-03-07T15:26:22;1.27;;;0.60;;
63110;SDS011;49201;53.426;10.300;2023-03-07T15:28:56;1.53;;;0.63;;
63110;SDS011;49201;53.426;10.300;2023-03-07T15:31:23;1.17;;;0.60;;
63110;SDS011;49201;53.426;10.300;2023-03-07T15:33:49;4.00;;;0.87;;
63110;SDS011;49201;53.426;10.300;2023-03-07T15:36:16;2.17;;;0.67;;
63110;SDS011;49201;53.426;10.300;2023-03-07T15:38:44;3.00;;;0.80;;
63110;SDS011;49201;53.426;10.300;2023-03-07T15:41:24;3.17;;;0.70;;
63110;SDS011;49201;53.426;10.300;2023-03-07T15:44:04;3.37;;;0.90;;
63110;SDS011;49201;53.426;10.300;2023-03-07T15:46:43;4.43;;;1.00;;
63110;SDS011;49201;53.426;10.300;2023-03-07T15:51:52;6.73;;;1.13;;
63110;SDS011;49201;53.426;10.300;2023-03-07T15:54:36;4.23;;;1.07;;
63110;SDS011;49201;53.426;10.300;2023-03-07T15:57:14;6.10;;;1.00;;
63110;SDS011;49201;53.426;10.300;2023-03-07T15:59:50;4.43;;;1.30;;
63110;SDS011;49201;53.426;10.300;2023-03-07T16:04:57;4.37;;;0.97;;
63110;SDS011;49201;53.426;10.300;2023-03-07T16:07:23;4.73;;;1.10;;
63110;SDS011;49201;53.426;10.300;2023-03-07T16:09:48;3.93;;;1.03;;
63110;SDS011;49201;53.426;10.300;2023-03-07T16:12:15;7.40;;;1.47;;
63110;SDS011;49201;53.426;10.300;2023-03-07T16:14:42;6.73;;;1.10;;
63110;SDS011;49201;53.426;10.300;2023-03-07T16:17:12;5.83;;;1.10;;
63110;SDS011;49201;53.426;10.300;2023-03-07T16:19:43;8.13;;;1.13;;
63110;SDS011;49201;53.426;10.300;2023-03-07T16:22:12;4.80;;;1.10;;
63110;SDS011;49201;53.426;10.300;2023-03-07T16:24:39;5.27;;;1.13;;
63110;SDS011;49201;53.426;10.300;2023-03-07T16:27:04;2.27;;;0.77;;
63110;SDS011;49201;53.426;10.300;2023-03-07T16:29:30;4.63;;;0.90;;
63110;SDS011;49201;53.426;10.300;2023-03-07T16:31:55;1.70;;;0.60;;
63110;SDS011;49201;53.426;10.300;2023-03-07T16:34:23;5.33;;;0.93;;
63110;SDS011;49201;53.426;10.300;2023-03-07T16:36:49;4.07;;;0.83;;
63110;SDS011;49201;53.426;10.300;2023-03-07T16:39:14;5.03;;;1.00;;
63110;SDS011;49201;53.426;10.300;2023-03-07T16:41:43;7.13;;;1.20;;
63110;SDS011;49201;53.426;10.300;2023-03-07T16:44:15;3.63;;;0.90;;
63110;SDS011;49201;53.426;10.300;2023-03-07T16:46:41;3.43;;;0.97;;
63110;SDS011;49201;53.426;10.300;2023-03-07T16:49:14;3.60;;;0.80;;
63110;SDS011;49201;53.426;10.300;2023-03-07T16:51:42;8.40;;;0.93;;
63110;SDS011;49201;53.426;10.300;2023-03-07T16:54:08;8.50;;;1.10;;
63110;SDS011;49201;53.426;10.300;2023-03-07T16:56:35;2.27;;;0.80;;
63110;SDS011;49201;53.426;10.300;2023-03-07T16:59:02;4.07;;;1.37;;
63110;SDS011;49201;53.426;10.300;2023-03-07T17:01:28;8.07;;;0.90;;
63110;SDS011;49201;53.426;10.300;2023-03-07T17:03:53;4.00;;;1.00;;
63110;SDS011;49201;53.426;10.300;2023-03-07T17:06:21;2.83;;;1.07;;
63110;SDS011;49201;53.426;10.300;2023-03-07T17:08:46;2.80;;;0.97;;
63110;SDS011;49201;53.426;10.300;2023-03-07T17:11:22;3.77;;;1.27;;
63110;SDS011;49201;53.426;10.300;2023-03-07T17:13:51;5.93;;;1.30;;
63110;SDS011;49201;53.426;10.300;2023-03-07T17:16:19;4.40;;;1.20;;
63110;SDS011;49201;53.426;10.300;2023-03-07T17:18:46;6.33;;;1.40;;